Belocean — 9V8782 — position and weather

sailwx.info

Track history (hours):
 
Tides and Currents Weather Stations Pressure Air Temp Water Temp Dewpoint Dewpoint Depression Visibility Wind Speed Wind Dir Waves Ship Positions

Belocean

Last reported at 2017-May-17 15:15 UTC. Time now 2017-May-25 05:05 UTC.
Position N 01°15' E 104°03'.

Length 190 m; draft 12.9 m.

Type: Ship. MMSI: 563582000.

Date/timePositionNaut miles runAvg speedWind from/ knotsBaromVisibWave heightAir tempDewpointWater temp
2017-May-17 15:15N 01°15' E 104°03'2 9.9
2017-May-17 15:00N 01°15' E 104°00'3 5.6
2017-May-17 14:30N 01°16' E 103°58'1 1.1
2017-May-17 13:27N 01°17' E 103°57'0 0.0
2017-May-17 13:00N 01°17' E 103°57'0 0.0
2017-May-17 12:24N 01°17' E 103°57'0 0.0
2017-May-17 11:57N 01°17' E 103°57'0 0.0
2017-May-17 11:27N 01°17' E 103°57'0 0.0
2017-May-17 10:51N 01°17' E 103°57'0 0.0
2017-May-17 10:30N 01°17' E 103°57'0 0.1
2017-May-17 09:39N 01°17' E 103°57'0 0.0
2017-May-17 09:30N 01°17' E 103°57'0 0.0
2017-May-17 09:00N 01°17' E 103°57'0 0.0
2017-May-17 08:27N 01°17' E 103°57'0 0.0
2017-May-17 08:00N 01°17' E 103°57'0 0.1
2017-May-17 07:18N 01°17' E 103°57'0 0.0
2017-May-17 07:00N 01°17' E 103°57'0 0.2
2017-May-17 06:27N 01°17' E 103°58'0 0.0
2017-May-17 06:00N 01°17' E 103°58'0 0.1
2017-May-17 05:27N 01°17' E 103°58'0 0.0
2017-May-17 05:00N 01°17' E 103°58'0 0.0
2017-May-17 04:30N 01°17' E 103°58'0 0.1
2017-May-17 03:54N 01°17' E 103°58'0 0.1
2017-May-17 03:30N 01°17' E 103°58'0 0.0
2017-May-17 03:00N 01°17' E 103°58'0 0.0
2017-May-17 02:27N 01°17' E 103°58'0 0.0
2017-May-17 01:48N 01°17' E 103°58'0 0.0
2017-May-17 01:30N 01°17' E 103°58'0 0.0
2017-May-17 01:00N 01°17' E 103°58'0 0.0
2017-May-17 00:24N 01°17' E 103°58'0 0.1
2017-May-17 00:00N 01°17' E 103°58'0 0.6
2017-May-16 23:30N 01°17' E 103°58'2 3.5
2017-May-16 23:00N 01°15' E 103°57'2 4.6
2017-May-16 22:30N 01°13' E 103°56'3 6.6
2017-May-16 22:00N 01°12' E 103°53'4 8.5
2017-May-16 21:30N 01°10' E 103°49'5 9.6
2017-May-16 21:00N 01°07' E 103°45'510.5
2017-May-16 20:30N 01°04' E 103°41'4 8.8
2017-May-16 20:00N 01°04' E 103°37'510.0
2017-May-16 19:30N 01°06' E 103°33'5 9.9
2017-May-16 18:58N 01°09' E 103°28'510.0
2017-May-16 18:30N 01°11' E 103°24'510.3
2017-May-16 18:00N 01°15' E 103°20'5810.3
2017-May-16 12:26N 01°46' E 102°32'510.0
2017-May-16 11:57N 01°48' E 102°27'5 9.8
2017-May-16 11:27N 01°50' E 102°23'  
Track history (hours):
 
Tides and Currents Weather Stations Pressure Air Temp Water Temp Dewpoint Dewpoint Depression Visibility Wind Speed Wind Dir Waves Ship Positions

Belocean

Last reported at 2017-May-17 15:15 UTC. Time now 2017-May-25 05:05 UTC.
Position N 01°15' E 104°03'.

Length 190 m; draft 12.9 m.

Type: Ship. MMSI: 563582000.

Date/timePositionNaut miles runAvg speedWind from/ knotsBaromVisibWave heightAir tempDewpointWater temp
2017-May-17 15:15N 01°15' E 104°03'2 9.9
2017-May-17 15:00N 01°15' E 104°00'3 5.6
2017-May-17 14:30N 01°16' E 103°58'1 1.1
2017-May-17 13:27N 01°17' E 103°57'0 0.0
2017-May-17 13:00N 01°17' E 103°57'0 0.0
2017-May-17 12:24N 01°17' E 103°57'0 0.0
2017-May-17 11:57N 01°17' E 103°57'0 0.0
2017-May-17 11:27N 01°17' E 103°57'0 0.0
2017-May-17 10:51N 01°17' E 103°57'0 0.0
2017-May-17 10:30N 01°17' E 103°57'0 0.1
2017-May-17 09:39N 01°17' E 103°57'0 0.0
2017-May-17 09:30N 01°17' E 103°57'0 0.0
2017-May-17 09:00N 01°17' E 103°57'0 0.0
2017-May-17 08:27N 01°17' E 103°57'0 0.0
2017-May-17 08:00N 01°17' E 103°57'0 0.1
2017-May-17 07:18N 01°17' E 103°57'0 0.0
2017-May-17 07:00N 01°17' E 103°57'0 0.2
2017-May-17 06:27N 01°17' E 103°58'0 0.0
2017-May-17 06:00N 01°17' E 103°58'0 0.1
2017-May-17 05:27N 01°17' E 103°58'0 0.0
2017-May-17 05:00N 01°17' E 103°58'0 0.0
2017-May-17 04:30N 01°17' E 103°58'0 0.1
2017-May-17 03:54N 01°17' E 103°58'0 0.1
2017-May-17 03:30N 01°17' E 103°58'0 0.0
2017-May-17 03:00N 01°17' E 103°58'0 0.0
2017-May-17 02:27N 01°17' E 103°58'0 0.0
2017-May-17 01:48N 01°17' E 103°58'0 0.0
2017-May-17 01:30N 01°17' E 103°58'0 0.0
2017-May-17 01:00N 01°17' E 103°58'0 0.0
2017-May-17 00:24N 01°17' E 103°58'0 0.1
2017-May-17 00:00N 01°17' E 103°58'0 0.6
2017-May-16 23:30N 01°17' E 103°58'2 3.5
2017-May-16 23:00N 01°15' E 103°57'2 4.6
2017-May-16 22:30N 01°13' E 103°56'3 6.6
2017-May-16 22:00N 01°12' E 103°53'4 8.5
2017-May-16 21:30N 01°10' E 103°49'5 9.6
2017-May-16 21:00N 01°07' E 103°45'510.5
2017-May-16 20:30N 01°04' E 103°41'4 8.8
2017-May-16 20:00N 01°04' E 103°37'510.0
2017-May-16 19:30N 01°06' E 103°33'5 9.9
2017-May-16 18:58N 01°09' E 103°28'510.0
2017-May-16 18:30N 01°11' E 103°24'510.3
2017-May-16 18:00N 01°15' E 103°20'5810.3
2017-May-16 12:26N 01°46' E 102°32'510.0
2017-May-16 11:57N 01°48' E 102°27'5 9.8
2017-May-16 11:27N 01°50' E 102°23'  

Dump ship's entire track history